createdAt,value
2018-08-24T00:00:06.252Z,21.74
2018-08-24T00:02:35.482Z,21.64
2018-08-24T00:05:04.692Z,21.51
2018-08-24T00:07:33.861Z,21.51
2018-08-24T00:10:03.048Z,21.53
2018-08-24T00:12:32.393Z,21.76
2018-08-24T00:15:01.597Z,21.91
2018-08-24T00:17:31.741Z,21.93
2018-08-24T00:20:01.681Z,21.83
2018-08-24T00:22:31.645Z,21.78
2018-08-24T00:25:00.888Z,21.99
2018-08-24T00:27:30.040Z,21.85
2018-08-24T00:29:59.200Z,21.69
2018-08-24T00:32:28.475Z,21.57
2018-08-24T00:34:57.699Z,21.55
2018-08-24T00:37:27.471Z,21.60
2018-08-24T00:39:56.632Z,21.49
2018-08-24T00:42:25.797Z,21.38
2018-08-24T00:44:54.960Z,21.23
2018-08-24T00:47:24.196Z,21.08
2018-08-24T00:49:53.350Z,21.00
2018-08-24T00:52:21.975Z,20.89
2018-08-24T00:54:50.569Z,20.79
2018-08-24T00:57:19.270Z,20.71
2018-08-24T00:59:47.932Z,20.65
2018-08-24T01:02:16.545Z,20.53
2018-08-24T01:04:45.136Z,20.43
2018-08-24T01:07:14.773Z,20.44
2018-08-24T01:09:43.943Z,20.44
2018-08-24T01:12:15.584Z,20.38
2018-08-24T01:14:46.343Z,20.34
2018-08-24T01:17:20.210Z,20.33
2018-08-24T01:19:49.224Z,20.40
2018-08-24T01:22:18.184Z,20.47
2018-08-24T01:24:46.763Z,20.48
2018-08-24T01:27:15.374Z,20.48
2018-08-24T01:29:44.296Z,20.44
2018-08-24T01:32:14.684Z,20.57
2018-08-24T01:34:43.368Z,20.93
2018-08-24T01:37:11.935Z,20.99
2018-08-24T01:39:40.574Z,21.18
2018-08-24T01:42:09.144Z,21.22
2018-08-24T01:44:37.804Z,21.21
2018-08-24T01:47:06.840Z,21.25
2018-08-24T01:49:35.685Z,21.32
2018-08-24T01:52:04.800Z,21.32
2018-08-24T01:54:35.990Z,21.36
2018-08-24T01:57:04.725Z,21.35
2018-08-24T01:59:33.460Z,21.45
2018-08-24T02:02:02.195Z,21.39
2018-08-24T02:04:32.954Z,21.53
2018-08-24T02:07:01.718Z,21.61
2018-08-24T02:09:30.596Z,21.85
2018-08-24T02:11:59.580Z,21.95
2018-08-24T02:14:33.620Z,22.02
2018-08-24T02:17:02.511Z,22.10
2018-08-24T02:19:36.340Z,22.15
2018-08-24T02:22:10.085Z,22.13
2018-08-24T02:24:38.760Z,22.12
2018-08-24T02:27:07.592Z,22.07
2018-08-24T02:29:38.476Z,21.89
2018-08-24T02:32:07.772Z,21.74
2018-08-24T02:34:36.387Z,21.60
2018-08-24T02:37:05.087Z,21.57
2018-08-24T02:39:35.952Z,21.66
2018-08-24T02:42:04.543Z,21.57
2018-08-24T02:44:33.109Z,21.34
2018-08-24T02:47:01.976Z,21.07
2018-08-24T02:49:30.586Z,20.87
2018-08-24T02:51:59.452Z,20.70
2018-08-24T02:54:28.064Z,20.49
2018-08-24T02:56:56.666Z,20.34
2018-08-24T02:59:25.412Z,20.24
2018-08-24T03:01:53.993Z,20.18
2018-08-24T03:04:22.652Z,20.22
2018-08-24T03:06:51.348Z,20.17
2018-08-24T03:09:21.755Z,20.15
2018-08-24T03:11:51.240Z,20.28
2018-08-24T03:14:19.969Z,20.21
2018-08-24T03:16:53.996Z,20.08
2018-08-24T03:19:22.659Z,19.96
2018-08-24T03:21:51.348Z,19.84
2018-08-24T03:24:19.986Z,19.80
2018-08-24T03:26:48.701Z,19.73
2018-08-24T03:29:17.341Z,19.69
2018-08-24T03:31:47.021Z,19.73
2018-08-24T03:34:15.616Z,19.70
2018-08-24T03:36:44.244Z,19.92
2018-08-24T03:39:12.904Z,20.15
2018-08-24T03:41:41.796Z,20.16
2018-08-24T03:44:10.439Z,20.08
2018-08-24T03:46:39.069Z,20.03
2018-08-24T03:49:07.673Z,20.00
2018-08-24T03:51:36.240Z,20.01
2018-08-24T03:54:09.224Z,19.99
2018-08-24T03:56:38.243Z,19.86
2018-08-24T03:59:06.821Z,19.86
2018-08-24T04:01:35.460Z,19.80
2018-08-24T04:04:04.323Z,19.75
2018-08-24T04:06:32.960Z,19.73
2018-08-24T04:09:01.534Z,19.75
2018-08-24T04:11:30.212Z,19.77
2018-08-24T04:13:58.867Z,19.88
2018-08-24T04:16:27.696Z,20.14
2018-08-24T04:18:56.310Z,20.28
2018-08-24T04:21:24.892Z,20.38
2018-08-24T04:23:53.485Z,20.45
2018-08-24T04:26:22.188Z,20.51
2018-08-24T04:28:50.805Z,20.56
2018-08-24T04:31:19.425Z,20.55
2018-08-24T04:33:48.143Z,20.66
2018-08-24T04:36:16.712Z,20.70
2018-08-24T04:38:45.365Z,20.87
2018-08-24T04:41:14.315Z,20.98
2018-08-24T04:43:42.993Z,21.10
2018-08-24T04:46:11.648Z,21.31
2018-08-24T04:48:40.303Z,21.53
2018-08-24T04:51:08.934Z,21.83
2018-08-24T04:53:37.748Z,22.08
2018-08-24T04:56:07.636Z,22.31
2018-08-24T04:58:36.403Z,22.42
2018-08-24T05:01:05.022Z,22.56
2018-08-24T05:03:34.277Z,22.71
2018-08-24T05:06:03.289Z,22.83
2018-08-24T05:08:32.734Z,22.99
2018-08-24T05:11:01.969Z,23.00
2018-08-24T05:13:31.535Z,23.00
2018-08-24T05:16:01.411Z,23.05
2018-08-24T05:18:30.576Z,23.10
2018-08-24T05:20:59.800Z,23.07
2018-08-24T05:23:28.968Z,23.13
2018-08-24T05:25:58.108Z,23.20
2018-08-24T05:28:27.330Z,23.34
2018-08-24T05:30:56.722Z,23.40
2018-08-24T05:33:26.137Z,23.52
2018-08-24T05:35:55.303Z,23.64
2018-08-24T05:38:24.476Z,23.79
2018-08-24T05:40:53.700Z,23.93
2018-08-24T05:43:22.884Z,24.24
2018-08-24T05:45:52.144Z,24.53
2018-08-24T05:48:21.498Z,24.86
2018-08-24T05:50:50.709Z,25.23
2018-08-24T05:53:19.868Z,25.91
2018-08-24T05:55:49.049Z,27.39
2018-08-24T05:58:18.462Z,29.06
2018-08-24T06:00:47.625Z,30.62
2018-08-24T06:03:16.831Z,31.88
2018-08-24T06:05:51.303Z,32.94
2018-08-24T06:08:20.594Z,33.90
2018-08-24T06:10:49.916Z,34.84
2018-08-24T06:13:19.921Z,35.77
2018-08-24T06:15:50.194Z,36.75
2018-08-24T06:18:19.581Z,37.86
2018-08-24T06:20:48.719Z,38.88
2018-08-24T06:23:17.995Z,39.77
2018-08-24T06:25:46.912Z,39.75
2018-08-24T06:28:15.852Z,39.35
2018-08-24T06:30:44.732Z,40.00
2018-08-24T06:33:13.821Z,40.84
2018-08-24T06:35:42.680Z,40.92
2018-08-24T06:38:11.559Z,41.57
2018-08-24T06:40:41.070Z,41.21
2018-08-24T06:43:10.121Z,40.98
2018-08-24T06:45:39.003Z,41.06
2018-08-24T06:48:07.880Z,41.97
2018-08-24T06:50:36.766Z,42.62
2018-08-24T06:53:05.860Z,42.82
2018-08-24T06:55:34.909Z,43.48
2018-08-24T06:58:04.199Z,43.28
2018-08-24T07:00:33.868Z,43.30
2018-08-24T07:03:03.157Z,41.91
2018-08-24T07:05:32.482Z,40.83
2018-08-24T07:08:01.426Z,41.06
2018-08-24T07:10:30.557Z,41.51
2018-08-24T07:12:59.602Z,41.79
2018-08-24T07:15:28.710Z,41.93
2018-08-24T07:18:03.764Z,42.60
2018-08-24T07:20:32.904Z,43.37
2018-08-24T07:23:01.915Z,44.33
2018-08-24T07:25:30.784Z,44.67
2018-08-24T07:27:59.789Z,42.97
2018-08-24T07:30:28.799Z,41.85
2018-08-24T07:32:57.760Z,41.16
2018-08-24T07:35:26.698Z,41.00
2018-08-24T07:37:55.646Z,41.14
2018-08-24T07:40:24.560Z,40.75
2018-08-24T07:42:53.483Z,41.67
2018-08-24T07:45:22.357Z,42.57
2018-08-24T07:47:51.249Z,43.39
2018-08-24T07:50:20.153Z,44.09
2018-08-24T07:52:49.076Z,45.30
2018-08-24T07:55:17.984Z,46.26
2018-08-24T07:57:46.863Z,46.39
2018-08-24T08:00:15.804Z,46.57
2018-08-24T08:02:45.238Z,45.93
2018-08-24T08:05:14.561Z,44.72
2018-08-24T08:07:43.791Z,43.73
2018-08-24T08:10:12.724Z,42.89
2018-08-24T08:12:41.644Z,41.68
2018-08-24T08:15:11.487Z,41.07
2018-08-24T08:17:41.781Z,40.26
2018-08-24T08:20:11.144Z,39.56
2018-08-24T08:22:40.204Z,39.37
2018-08-24T08:25:09.172Z,39.37
2018-08-24T08:27:38.105Z,39.10
2018-08-24T08:30:07.472Z,38.21
2018-08-24T08:32:36.436Z,37.27
2018-08-24T08:35:06.325Z,36.09
2018-08-24T08:37:35.508Z,34.78
2018-08-24T08:40:04.808Z,33.51
2018-08-24T08:42:33.972Z,32.24
2018-08-24T08:45:03.248Z,31.10
2018-08-24T08:47:32.513Z,30.09
2018-08-24T08:50:01.933Z,29.18
2018-08-24T08:52:31.093Z,28.72
2018-08-24T08:55:00.244Z,28.62
2018-08-24T08:57:29.646Z,28.56
2018-08-24T08:59:58.908Z,28.60
2018-08-24T09:02:28.136Z,28.67
2018-08-24T09:04:57.295Z,28.81
2018-08-24T09:07:26.737Z,28.76
2018-08-24T09:09:56.504Z,28.79
2018-08-24T09:12:25.692Z,28.93
2018-08-24T09:14:55.012Z,29.19
2018-08-24T09:17:29.575Z,29.54
2018-08-24T09:20:04.070Z,29.93
2018-08-24T09:23:38.243Z,30.55
2018-08-24T09:26:12.953Z,31.23
2018-08-24T09:28:42.352Z,31.66
2018-08-24T09:31:18.092Z,32.12
2018-08-24T09:33:47.881Z,32.37
2018-08-24T09:36:19.453Z,32.55
2018-08-24T09:38:49.542Z,32.68
2018-08-24T09:41:18.776Z,32.71
2018-08-24T09:43:53.313Z,32.72
2018-08-24T09:46:27.847Z,32.83
2018-08-24T09:49:02.394Z,33.07
2018-08-24T09:51:31.887Z,33.24
2018-08-24T09:54:01.674Z,33.38
2018-08-24T09:56:31.976Z,33.46
2018-08-24T09:59:01.570Z,33.66
2018-08-24T10:01:35.998Z,33.88
2018-08-24T10:04:10.606Z,34.08
2018-08-24T10:06:45.062Z,34.24
2018-08-24T10:09:15.389Z,34.28
2018-08-24T10:11:44.664Z,34.16
2018-08-24T10:14:13.845Z,33.96
2018-08-24T10:16:43.344Z,33.83
2018-08-24T10:19:13.736Z,33.73
2018-08-24T10:21:43.104Z,33.58
2018-08-24T10:24:12.427Z,33.45
2018-08-24T10:26:41.692Z,33.30
2018-08-24T10:29:10.919Z,33.37
2018-08-24T10:31:40.256Z,33.49
2018-08-24T10:34:09.453Z,33.62
2018-08-24T10:36:38.802Z,33.71
2018-08-24T10:39:10.351Z,33.69
2018-08-24T10:41:39.928Z,33.78
2018-08-24T10:44:09.242Z,33.85
2018-08-24T11:00:19.156Z,33.72
2018-08-24T11:02:48.325Z,33.57
2018-08-24T11:05:17.546Z,33.44
2018-08-24T11:07:46.802Z,33.35
2018-08-24T11:10:16.213Z,33.23
2018-08-24T11:12:45.675Z,33.09
2018-08-24T11:15:14.857Z,32.99
2018-08-24T11:17:49.513Z,32.94
2018-08-24T11:20:18.759Z,32.95
2018-08-24T11:22:48.130Z,32.88
2018-08-24T11:25:17.310Z,32.81
2018-08-24T11:27:46.563Z,32.63
2018-08-24T11:30:15.820Z,32.39
2018-08-24T11:32:45.059Z,32.31
2018-08-24T11:35:14.329Z,32.34
2018-08-24T11:37:43.536Z,32.50
2018-08-24T11:40:12.692Z,32.62
2018-08-24T11:42:41.889Z,32.58
2018-08-24T11:45:11.233Z,32.42
2018-08-24T11:47:40.424Z,32.31
2018-08-24T11:50:09.800Z,32.11
2018-08-24T11:52:38.998Z,31.94
2018-08-24T11:55:08.245Z,31.76
2018-08-24T11:57:37.411Z,31.60
2018-08-24T12:00:06.836Z,31.52
2018-08-24T12:02:36.032Z,31.44
2018-08-24T12:05:05.684Z,31.34
2018-08-24T12:07:34.983Z,31.33
2018-08-24T12:10:04.756Z,31.27
2018-08-24T12:12:34.034Z,31.16
2018-08-24T12:15:03.410Z,31.01
2018-08-24T12:17:35.432Z,30.92
2018-08-24T12:20:05.837Z,30.72
2018-08-24T12:22:35.658Z,30.37
2018-08-24T12:25:05.443Z,30.00
2018-08-24T12:27:34.760Z,29.61
2018-08-24T12:30:04.154Z,29.19
2018-08-24T12:32:33.368Z,28.67
2018-08-24T12:35:02.752Z,28.23
2018-08-24T12:37:36.212Z,27.82
2018-08-24T12:40:05.741Z,27.59
2018-08-24T12:42:34.894Z,27.58
2018-08-24T12:45:04.389Z,27.69
2018-08-24T12:47:33.635Z,27.85
2018-08-24T12:50:02.890Z,28.25
2018-08-24T12:52:32.213Z,28.66
2018-08-24T12:55:02.029Z,29.02
2018-08-24T12:57:31.711Z,29.23
2018-08-24T13:00:01.637Z,29.41
2018-08-24T13:02:30.937Z,29.54
2018-08-24T13:05:00.093Z,29.55
2018-08-24T13:07:29.299Z,29.46
2018-08-24T13:09:59.081Z,29.38
2018-08-24T13:12:28.375Z,29.29
2018-08-24T13:14:58.080Z,29.27
2018-08-24T13:17:27.295Z,29.36
2018-08-24T13:19:56.508Z,29.37
2018-08-24T13:22:25.768Z,29.33
2018-08-24T13:24:55.011Z,29.25
2018-08-24T13:27:24.405Z,29.12
2018-08-24T13:29:53.689Z,28.93
2018-08-24T13:32:22.960Z,28.78
2018-08-24T13:34:52.210Z,28.67
2018-08-24T13:37:21.490Z,28.68
2018-08-24T13:39:50.873Z,28.85
2018-08-24T13:42:20.152Z,29.04
2018-08-24T13:44:49.407Z,29.28
2018-08-24T13:47:18.636Z,29.37
2018-08-24T13:49:48.155Z,29.41
2018-08-24T13:52:17.364Z,29.45
2018-08-24T13:54:47.324Z,29.44
2018-08-24T13:57:16.791Z,29.38
2018-08-24T13:59:45.983Z,29.22
2018-08-24T14:02:15.408Z,29.14
2018-08-24T14:04:44.608Z,29.05
2018-08-24T14:07:13.857Z,28.95
2018-08-24T14:09:43.120Z,28.86
2018-08-24T14:12:12.281Z,28.66
2018-08-24T14:14:41.564Z,28.44
2018-08-24T14:17:10.800Z,28.16
2018-08-24T14:19:40.028Z,27.91
2018-08-24T14:22:09.536Z,27.77
2018-08-24T14:24:38.917Z,27.61
2018-08-24T14:27:08.273Z,27.64
2018-08-24T14:29:37.460Z,27.78
2018-08-24T14:32:06.812Z,27.94
2018-08-24T14:34:35.979Z,28.14
2018-08-24T14:37:05.668Z,28.44
2018-08-24T14:39:35.308Z,28.77
2018-08-24T14:42:04.541Z,29.09
2018-08-24T14:44:33.724Z,29.32
2018-08-24T14:47:02.948Z,29.55
2018-08-24T14:49:32.184Z,29.72
2018-08-24T14:52:01.344Z,29.82
2018-08-24T14:54:30.544Z,29.85
2018-08-24T14:57:00.032Z,29.90
2018-08-24T14:59:29.208Z,29.95
2018-08-24T15:01:58.413Z,30.00
2018-08-24T15:04:27.666Z,30.01
2018-08-24T15:06:57.094Z,29.93
2018-08-24T15:09:26.408Z,29.80
2018-08-24T15:11:55.796Z,29.61
2018-08-24T15:14:25.039Z,29.30
2018-08-24T15:16:54.253Z,29.10
2018-08-24T15:19:23.692Z,28.94
2018-08-24T15:21:53.032Z,28.72
2018-08-24T15:24:22.361Z,28.54
2018-08-24T15:26:51.561Z,28.44
2018-08-24T15:29:20.983Z,28.42
2018-08-24T15:31:50.470Z,28.44
2018-08-24T15:34:19.631Z,28.35
2018-08-24T15:36:48.798Z,28.30
2018-08-24T15:39:18.080Z,28.19
2018-08-24T15:41:47.908Z,28.11
2018-08-24T15:44:17.109Z,27.98
2018-08-24T15:46:46.428Z,27.87
2018-08-24T15:49:15.592Z,27.71
2018-08-24T15:51:44.900Z,27.52
2018-08-24T15:54:14.089Z,27.32
2018-08-24T15:56:43.327Z,27.13
2018-08-24T15:59:12.580Z,26.92
2018-08-24T16:01:41.754Z,26.74
2018-08-24T16:04:10.943Z,26.65
2018-08-24T16:06:40.308Z,26.56
2018-08-24T16:09:10.566Z,26.37
2018-08-24T16:11:40.006Z,26.28
2018-08-24T16:14:09.413Z,26.10
2018-08-24T16:16:39.176Z,25.63
2018-08-24T16:19:09.556Z,25.11
2018-08-24T16:21:38.788Z,24.60
2018-08-24T16:24:08.035Z,24.33
2018-08-24T16:26:37.280Z,23.93
2018-08-24T16:29:06.955Z,23.55
2018-08-24T16:31:36.154Z,23.18
2018-08-24T16:34:05.500Z,22.98
2018-08-24T16:36:34.660Z,22.71
2018-08-24T16:39:04.467Z,22.55
2018-08-24T16:41:33.704Z,22.44
2018-08-24T16:44:02.888Z,22.35
2018-08-24T16:46:32.151Z,22.41
2018-08-24T16:49:01.479Z,22.36
2018-08-24T16:51:30.696Z,22.36
2018-08-24T16:53:59.992Z,22.32
2018-08-24T16:56:29.153Z,22.28
2018-08-24T16:58:58.328Z,22.31
2018-08-24T17:01:27.577Z,22.32
2018-08-24T17:03:56.858Z,22.32
2018-08-24T17:06:26.524Z,22.30
2018-08-24T17:08:55.722Z,22.28
2018-08-24T17:11:25.496Z,22.26
2018-08-24T17:13:54.772Z,22.31
2018-08-24T17:16:24.020Z,22.38
2018-08-24T17:18:53.340Z,22.39
2018-08-24T17:21:22.526Z,22.28
2018-08-24T17:23:51.732Z,22.20
2018-08-24T17:26:20.956Z,22.17
2018-08-24T17:28:50.298Z,22.17
2018-08-24T17:31:19.519Z,22.21
2018-08-24T17:33:49.013Z,22.19
2018-08-24T17:36:18.290Z,22.10
2018-08-24T17:38:47.636Z,22.11
2018-08-24T17:41:16.884Z,21.99
2018-08-24T17:43:46.154Z,21.89
2018-08-24T17:46:15.980Z,21.82
2018-08-24T17:48:45.520Z,21.76
2018-08-24T17:51:15.553Z,21.82
2018-08-24T17:53:44.933Z,21.96
2018-08-24T17:56:14.896Z,21.84
2018-08-24T17:58:44.133Z,21.89
2018-08-24T18:01:13.337Z,21.82
2018-08-24T18:03:42.544Z,21.97
2018-08-24T18:06:11.893Z,21.89
2018-08-24T18:08:41.153Z,21.79
2018-08-24T18:11:10.337Z,21.67
2018-08-24T18:13:39.577Z,21.56
2018-08-24T18:16:08.980Z,21.72
2018-08-24T18:18:38.393Z,21.83
2018-08-24T18:21:08.810Z,21.77
2018-08-24T18:23:38.176Z,21.63
2018-08-24T18:26:08.791Z,21.66
2018-08-24T18:28:38.193Z,21.72
2018-08-24T18:31:08.705Z,21.70
2018-08-24T18:33:38.064Z,21.60
2018-08-24T18:36:07.912Z,21.48
2018-08-24T18:38:37.144Z,21.46
2018-08-24T18:41:06.580Z,21.39
2018-08-24T18:43:35.762Z,21.33
2018-08-24T18:46:05.361Z,21.28
2018-08-24T18:48:34.639Z,21.22
2018-08-24T18:51:04.562Z,21.16
2018-08-24T18:53:33.292Z,21.13
2018-08-24T18:56:01.960Z,21.05
2018-08-24T18:58:30.787Z,21.00
2018-08-24T19:00:59.421Z,20.88
2018-08-24T19:03:28.089Z,20.85
2018-08-24T19:05:56.720Z,20.86
2018-08-24T19:08:26.126Z,20.80
2018-08-24T19:11:00.268Z,20.82
2018-08-24T19:13:29.037Z,20.74
2018-08-24T19:15:57.787Z,20.60
2018-08-24T19:18:31.733Z,20.58
2018-08-24T19:21:06.219Z,20.64
2018-08-24T19:23:34.844Z,20.58
2018-08-24T19:26:03.455Z,20.48
2018-08-24T19:28:37.635Z,20.43
2018-08-24T19:31:06.270Z,20.43
2018-08-24T19:33:34.913Z,20.37
2018-08-24T19:36:03.737Z,20.27
2018-08-24T19:38:32.349Z,20.24
2018-08-24T19:41:06.156Z,20.43
2018-08-24T19:43:34.873Z,20.37
2018-08-24T19:46:03.506Z,20.30
2018-08-24T19:48:37.389Z,20.30
2018-08-24T19:51:06.565Z,20.32
2018-08-24T19:53:35.205Z,20.34
2018-08-24T19:56:04.092Z,20.32
2018-08-24T19:58:38.047Z,20.37
2018-08-24T20:01:06.628Z,20.41
2018-08-24T20:03:35.234Z,20.42
2018-08-24T20:06:09.425Z,20.37
2018-08-24T20:08:43.536Z,20.34
2018-08-24T20:11:12.253Z,20.30
2018-08-24T20:13:40.986Z,20.22
2018-08-24T20:16:14.805Z,20.20
2018-08-24T20:18:43.528Z,20.23
2018-08-24T20:21:12.345Z,20.42
2018-08-24T20:23:40.999Z,20.36
2018-08-24T20:26:09.765Z,20.49
2018-08-24T20:28:38.514Z,20.47
2018-08-24T20:31:07.149Z,20.49
2018-08-24T20:33:35.853Z,20.48
2018-08-24T20:36:05.033Z,20.54
2018-08-24T20:38:33.724Z,20.57
2018-08-24T20:41:02.373Z,20.56
2018-08-24T20:43:31.238Z,20.68
2018-08-24T20:46:00.066Z,20.77
2018-08-24T20:48:28.680Z,20.72
2018-08-24T20:50:57.305Z,20.80
2018-08-24T20:53:26.118Z,20.90
2018-08-24T21:16:39.730Z,20.64
2018-08-24T21:19:09.095Z,20.68
2018-08-24T21:21:37.732Z,20.70
2018-08-24T21:24:07.324Z,20.78
2018-08-24T21:26:35.901Z,20.82
2018-08-24T21:29:05.061Z,20.92
2018-08-24T21:31:33.737Z,21.06
2018-08-24T21:34:02.498Z,21.02
2018-08-24T21:36:31.248Z,20.90
2018-08-24T21:38:59.856Z,20.95
2018-08-24T21:41:28.464Z,20.99
2018-08-24T21:43:57.121Z,20.93
2018-08-24T21:46:25.704Z,20.81
2018-08-24T21:48:54.395Z,20.72
2018-08-24T21:51:23.105Z,20.65
2018-08-24T21:53:51.887Z,20.59
2018-08-24T21:56:21.316Z,20.67
2018-08-24T21:58:50.502Z,20.71
2018-08-24T22:01:19.989Z,20.76
2018-08-24T22:03:48.617Z,20.96
2018-08-24T22:06:18.625Z,21.00
2018-08-24T22:08:47.875Z,21.04
2018-08-24T22:11:17.039Z,21.05
2018-08-24T22:13:45.713Z,21.01
2018-08-24T22:16:15.229Z,21.01
2018-08-24T22:18:44.488Z,20.82
2018-08-24T22:21:13.223Z,20.66
2018-08-24T22:23:42.479Z,20.51
2018-08-24T22:26:11.869Z,20.44
2018-08-24T22:28:41.903Z,20.32
2018-08-24T22:31:10.800Z,20.25
2018-08-24T22:33:39.492Z,20.16
2018-08-24T22:36:08.600Z,20.08
2018-08-24T22:38:37.384Z,20.04
2018-08-24T22:41:06.791Z,19.85
2018-08-24T22:43:36.478Z,19.80
2018-08-24T22:46:06.416Z,19.80
2018-08-24T22:48:35.579Z,19.77
2018-08-24T22:51:04.867Z,19.76
2018-08-24T22:53:33.572Z,19.91
2018-08-24T22:56:02.558Z,19.92
2018-08-24T22:58:31.280Z,19.93
2018-08-24T23:00:59.987Z,19.90
2018-08-24T23:03:28.791Z,19.76
2018-08-24T23:05:57.695Z,19.78
2018-08-24T23:08:26.593Z,19.80
2018-08-24T23:10:56.131Z,19.80
2018-08-24T23:13:24.997Z,19.80
2018-08-24T23:15:53.719Z,19.79
2018-08-24T23:18:23.195Z,19.79
2018-08-24T23:20:51.920Z,19.82
2018-08-24T23:23:21.473Z,19.76
2018-08-24T23:25:50.286Z,19.67
2018-08-24T23:28:18.984Z,19.67
2018-08-24T23:30:48.467Z,19.60
2018-08-24T23:33:17.174Z,19.51
2018-08-24T23:35:46.736Z,19.52
2018-08-24T23:38:15.584Z,19.42
2018-08-24T23:40:44.343Z,19.46
2018-08-24T23:43:13.070Z,19.50
2018-08-24T23:45:42.346Z,19.48
2018-08-24T23:48:11.274Z,19.32
2018-08-24T23:50:42.681Z,19.21
2018-08-24T23:53:11.512Z,19.17
2018-08-24T23:55:40.217Z,19.12
2018-08-24T23:58:09.293Z,18.98
